CheckWX is a tool to help pilots better visualize weather data.  It is not intended as a substitute for an official pre-flight weather briefing.

06:38:45 UTC

KADW TAF
Joint Base Andrews Airport
Camp Springs, Maryland, USA
TAF KADW 220100Z 2201/2307 VRB06KT 9999 SKC QNH3035INS BECMG 2217/2218 24010KT 9999 SKC QNH3028INS BECMG 2222/2223 VRB04KT 9999 SKC QNH3027INS TX08/2220Z TNM03/2211Z

Feb-22@
01:00 UTC

Feb-22 @ 01:00 UTC

Feb-22@
17:00 UTC

Feb-22 @ 17:00 UTC

TAF KADW 220100Z 2201/2307 VRB06KT 9999 SKC QNH3035INS
Wind
  • Variable at 6 KTS
Cloud Levels
  • Clear skies

Feb-22@
17:00 UTC

Feb-22 @ 17:00 UTC

Feb-22@
22:00 UTC

Feb-22 @ 22:00 UTC

BECMG 2217/2218 24010KT 9999 SKC QNH3028INS

Becoming

Becoming Conditions expected by Sat, Feb 22, 2020 @ 18:00 UTC

Wind
  • 240° at 10 KTS
Cloud Levels
  • Clear skies

Feb-22@
22:00 UTC

Feb-22 @ 22:00 UTC

Feb-23@
07:00 UTC

Feb-23 @ 07:00 UTC

BECMG 2222/2223 VRB04KT 9999 SKC QNH3027INS TX08/2220Z TNM03/2211Z

Becoming

Becoming Conditions expected by Sat, Feb 22, 2020 @ 23:00 UTC

Wind
  • Variable at 4 KTS
Cloud Levels
  • Clear skies